createdAt,value
2023-05-03T00:00:21.028Z,102197.75
2023-05-03T00:02:47.452Z,102204.16
2023-05-03T00:05:14.954Z,102202.00
2023-05-03T00:07:42.208Z,102200.50
2023-05-03T00:10:09.301Z,102203.38
2023-05-03T00:12:35.872Z,102211.25
2023-05-03T00:15:02.219Z,102207.63
2023-05-03T00:17:28.609Z,102213.38
2023-05-03T00:19:56.426Z,102209.03
2023-05-03T00:22:22.954Z,102211.91
2023-05-03T00:24:50.991Z,102213.25
2023-05-03T00:27:17.573Z,102210.38
2023-05-03T00:29:43.923Z,102208.88
2023-05-03T00:32:10.996Z,102207.50
2023-05-03T00:34:37.706Z,102211.75
2023-05-03T00:37:04.050Z,102216.75
2023-05-03T00:39:31.514Z,102214.50
2023-05-03T00:41:58.527Z,102216.00
2023-05-03T00:44:25.225Z,102207.22
2023-05-03T00:46:51.805Z,102205.72
2023-05-03T00:49:18.460Z,102207.22
2023-05-03T00:51:44.834Z,102217.25
2023-05-03T00:54:11.245Z,102211.47
2023-05-03T00:56:47.816Z,102209.97
2023-05-03T00:59:17.810Z,102209.97
2023-05-03T01:01:45.707Z,102215.72
2023-05-03T01:04:12.365Z,102214.22
2023-05-03T01:06:38.776Z,102206.97
2023-05-03T01:09:22.448Z,102214.22
2023-05-03T01:12:08.500Z,102204.72
2023-05-03T01:14:53.593Z,102211.22
2023-05-03T01:17:20.045Z,102206.06
2023-05-03T01:19:50.145Z,102203.97
2023-05-03T01:22:35.130Z,102219.72
2023-05-03T01:25:07.970Z,102213.94
2023-05-03T01:27:34.418Z,102212.47
2023-05-03T01:30:01.067Z,102217.47
2023-05-03T01:32:30.937Z,102210.94
2023-05-03T01:35:20.581Z,102220.94
2023-05-03T01:37:47.525Z,102212.31
2023-05-03T01:40:16.851Z,102219.44
2023-05-03T01:42:43.240Z,102219.44
2023-05-03T01:45:09.847Z,102222.31
2023-05-03T01:47:36.226Z,102223.69
2023-05-03T01:50:02.858Z,102210.69
2023-05-03T01:52:30.263Z,102215.06
2023-05-03T01:54:56.977Z,102219.44
2023-05-03T01:57:23.363Z,102217.94
2023-05-03T01:59:49.750Z,102217.94
2023-05-03T02:02:16.125Z,102220.81
2023-05-03T02:04:42.851Z,102209.91
2023-05-03T02:07:09.431Z,102221.41
2023-05-03T02:09:35.826Z,102220.69
2023-05-03T02:12:02.197Z,102219.19
2023-05-03T02:14:28.744Z,102222.06
2023-05-03T02:16:55.845Z,102221.91
2023-05-03T02:19:22.398Z,102220.41
2023-05-03T02:21:48.926Z,102231.16
2023-05-03T02:24:16.343Z,102231.16
2023-05-03T02:26:42.678Z,102231.16
2023-05-03T02:29:09.961Z,102228.16
2023-05-03T02:31:36.330Z,102243.28
2023-05-03T02:34:03.554Z,102241.75
2023-05-03T02:36:29.988Z,102243.13
2023-05-03T02:38:57.109Z,102237.34
2023-05-03T02:41:23.497Z,102243.13
2023-05-03T02:43:50.786Z,102240.25
2023-05-03T02:46:17.863Z,102238.75
2023-05-03T02:48:44.222Z,102248.88
2023-05-03T02:51:11.243Z,102246.16
2023-05-03T02:53:37.698Z,102254.94
2023-05-03T02:56:04.217Z,102256.47
2023-05-03T02:58:31.002Z,102260.84
2023-05-03T03:00:58.741Z,102261.72
2023-05-03T03:03:28.784Z,102259.63
2023-05-03T03:05:55.332Z,102263.25
2023-05-03T03:08:22.673Z,102268.25
2023-05-03T03:10:49.589Z,102260.97
2023-05-03T03:13:16.546Z,102266.88
2023-05-03T03:15:42.925Z,102267.47
2023-05-03T03:18:09.389Z,102269.75
2023-05-03T03:20:35.981Z,102257.63
2023-05-03T03:23:02.849Z,102263.38
2023-05-03T03:25:29.236Z,102264.28
2023-05-03T03:27:57.255Z,102277.28
2023-05-03T03:30:24.778Z,102277.28
2023-05-03T03:33:03.396Z,102277.28
2023-05-03T03:35:36.791Z,102277.28
2023-05-03T03:38:04.242Z,102273.03
2023-05-03T03:40:31.050Z,102278.03
2023-05-03T03:42:57.608Z,102275.78
2023-05-03T03:45:24.970Z,102280.16
2023-05-03T03:47:53.698Z,102287.44
2023-05-03T03:50:21.866Z,102279.56
2023-05-03T03:52:48.377Z,102292.56
2023-05-03T03:55:15.687Z,102292.69
2023-05-03T03:57:42.790Z,102290.56
2023-05-03T04:00:10.415Z,102293.44
2023-05-03T04:02:39.096Z,102300.59
2023-05-03T04:05:10.040Z,102293.34
2023-05-03T04:07:36.802Z,102293.34
2023-05-03T04:10:03.597Z,102300.59
2023-05-03T04:12:30.603Z,102297.56
2023-05-03T04:14:57.211Z,102299.09
2023-05-03T04:17:23.957Z,102300.59
2023-05-03T04:19:51.314Z,102307.84
2023-05-03T04:22:18.114Z,102312.25
2023-05-03T04:24:45.851Z,102316.63
2023-05-03T04:27:14.608Z,102328.13
2023-05-03T04:29:41.899Z,102323.75
2023-05-03T04:32:08.314Z,102329.66
2023-05-03T04:34:35.987Z,102327.38
2023-05-03T04:37:05.053Z,102321.63
2023-05-03T04:39:32.185Z,102337.41
2023-05-03T04:41:58.569Z,102333.91
2023-05-03T04:44:26.086Z,102338.16
2023-05-03T04:46:53.497Z,102343.31
2023-05-03T04:49:19.972Z,102340.44
2023-05-03T04:51:46.326Z,102347.69
2023-05-03T04:54:13.224Z,102342.66
2023-05-03T04:56:39.811Z,102348.44
2023-05-03T04:59:12.787Z,102344.94
2023-05-03T05:01:39.788Z,102347.06
2023-05-03T05:04:07.563Z,102341.41
2023-05-03T05:06:40.148Z,102339.84
2023-05-03T05:09:07.980Z,102351.53
2023-05-03T05:11:34.646Z,102346.25
2023-05-03T05:14:01.033Z,102342.88
2023-05-03T05:16:27.455Z,102343.09
2023-05-03T05:18:53.916Z,102353.06
2023-05-03T05:21:23.822Z,102347.75
2023-05-03T05:23:50.195Z,102350.91
2023-05-03T05:26:16.761Z,102351.16
2023-05-03T05:28:43.239Z,102346.28
2023-05-03T05:31:09.626Z,102361.47
2023-05-03T05:33:36.582Z,102356.47
2023-05-03T05:36:04.244Z,102366.44
2023-05-03T05:38:32.981Z,102370.09
2023-05-03T05:41:00.035Z,102370.09
2023-05-03T05:43:26.404Z,102362.22
2023-05-03T05:45:53.855Z,102367.38
2023-05-03T05:48:20.846Z,102369.47
2023-05-03T05:50:48.753Z,102372.50
2023-05-03T05:53:15.289Z,102369.00
2023-05-03T05:55:48.606Z,102375.50
2023-05-03T05:58:15.025Z,102375.66
2023-05-03T06:00:50.174Z,102380.81
2023-05-03T06:03:17.596Z,102386.56
2023-05-03T06:05:45.574Z,102386.56
2023-05-03T06:08:12.748Z,102384.44
2023-05-03T06:10:39.975Z,102385.78
2023-05-03T06:13:06.357Z,102381.78
2023-05-03T06:15:33.792Z,102391.13
2023-05-03T06:18:00.346Z,102389.78
2023-05-03T06:20:26.876Z,102396.53
2023-05-03T06:22:54.139Z,102396.38
2023-05-03T06:25:20.746Z,102393.72
2023-05-03T06:27:49.082Z,102390.97
2023-05-03T06:30:17.195Z,102402.38
2023-05-03T06:32:46.627Z,102391.63
2023-05-03T06:35:13.720Z,102387.69
2023-05-03T06:37:40.566Z,102390.44
2023-05-03T06:40:07.263Z,102400.69
2023-05-03T06:42:33.619Z,102391.78
2023-05-03T06:45:16.357Z,102398.47
2023-05-03T06:47:43.150Z,102394.53
2023-05-03T06:50:09.949Z,102389.69
2023-05-03T06:52:36.459Z,102397.53
2023-05-03T06:55:02.972Z,102385.59
2023-05-03T06:57:29.344Z,102396.50
2023-05-03T06:59:55.685Z,102395.06
2023-05-03T07:02:22.804Z,102387.47
2023-05-03T07:04:49.388Z,102388.19
2023-05-03T07:07:15.897Z,102390.88
2023-05-03T07:09:43.652Z,102388.91
2023-05-03T07:12:10.472Z,102387.69
2023-05-03T07:14:36.881Z,102387.81
2023-05-03T07:17:03.269Z,102389.19
2023-05-03T07:19:30.184Z,102386.59
2023-05-03T07:21:56.590Z,102394.00
2023-05-03T07:24:24.831Z,102382.63
2023-05-03T07:26:51.230Z,102390.66
2023-05-03T07:29:17.561Z,102389.88
2023-05-03T07:31:44.846Z,102389.31
2023-05-03T07:34:11.294Z,102391.59
2023-05-03T07:36:37.977Z,102392.94
2023-05-03T07:39:04.923Z,102387.31
2023-05-03T07:41:31.723Z,102392.47
2023-05-03T07:43:58.094Z,102390.34
2023-05-03T07:46:24.602Z,102386.13
2023-05-03T07:48:51.027Z,102383.84
2023-05-03T07:51:17.347Z,102393.38
2023-05-03T07:53:44.145Z,102389.91
2023-05-03T07:56:11.012Z,102381.88
2023-05-03T07:58:40.473Z,102381.88
2023-05-03T08:01:07.357Z,102390.66
2023-05-03T08:03:33.946Z,102377.88
2023-05-03T08:06:00.796Z,102375.66
2023-05-03T08:08:27.815Z,102383.66
2023-05-03T08:10:54.307Z,102382.16
2023-05-03T08:13:22.520Z,102379.56
2023-05-03T08:15:49.367Z,102378.91
2023-05-03T08:18:15.935Z,102373.94
2023-05-03T08:20:42.400Z,102375.44
2023-05-03T08:23:08.743Z,102376.81
2023-05-03T08:25:37.096Z,102381.94
2023-05-03T08:28:03.599Z,102381.19
2023-05-03T08:30:30.357Z,102368.94
2023-05-03T08:32:56.778Z,102372.69
2023-05-03T08:35:23.134Z,102372.09
2023-05-03T08:37:49.493Z,102375.88
2023-05-03T08:40:16.634Z,102369.97
2023-05-03T08:42:43.423Z,102381.47
2023-05-03T08:45:09.996Z,102382.97
2023-05-03T08:47:38.483Z,102382.84
2023-05-03T08:50:05.378Z,102391.75
2023-05-03T08:52:32.100Z,102385.25
2023-05-03T08:54:58.474Z,102383.63
2023-05-03T08:57:25.346Z,102389.47
2023-05-03T08:59:54.189Z,102385.72
2023-05-03T09:02:21.335Z,102398.75
2023-05-03T09:04:47.710Z,102400.25
2023-05-03T09:07:15.995Z,102394.50
2023-05-03T09:09:45.553Z,102388.00
2023-05-03T09:12:13.354Z,102395.25
2023-05-03T09:14:43.744Z,102398.75
2023-05-03T09:17:16.868Z,102392.38
2023-05-03T09:19:49.586Z,102400.13
2023-05-03T09:22:16.188Z,102395.25
2023-05-03T09:24:48.377Z,102396.03
2023-05-03T09:27:17.918Z,102390.88
2023-05-03T09:29:44.254Z,102387.38
2023-05-03T09:32:10.931Z,102384.50
2023-05-03T09:34:37.598Z,102387.53
2023-05-03T09:37:03.969Z,102387.53
2023-05-03T09:39:30.457Z,102379.00
2023-05-03T09:41:56.849Z,102379.00
2023-05-03T09:44:39.800Z,102390.53
2023-05-03T09:47:06.189Z,102386.28
2023-05-03T09:49:33.043Z,102377.50
2023-05-03T09:51:59.933Z,102391.28
2023-05-03T09:54:26.319Z,102389.16
2023-05-03T09:56:55.681Z,102384.91
2023-05-03T09:59:22.050Z,102392.03
2023-05-03T10:01:48.596Z,102386.28
2023-05-03T10:04:19.682Z,102382.81
2023-05-03T10:06:47.146Z,102379.22
2023-05-03T10:09:24.295Z,102387.25
2023-05-03T10:11:51.865Z,102385.56
2023-05-03T10:14:18.541Z,102382.28
2023-05-03T10:16:45.729Z,102374.84
2023-05-03T10:19:16.230Z,102377.41
2023-05-03T10:21:48.872Z,102381.03
2023-05-03T10:24:16.049Z,102377.38
2023-05-03T10:26:42.989Z,102385.09
2023-05-03T10:29:27.858Z,102378.69
2023-05-03T10:31:54.286Z,102386.88
2023-05-03T10:34:21.224Z,102382.63
2023-05-03T10:36:50.431Z,102378.38
2023-05-03T10:39:18.265Z,102379.13
2023-05-03T10:41:44.821Z,102386.66
2023-05-03T10:44:27.222Z,102365.91
2023-05-03T10:46:53.741Z,102376.94
2023-05-03T10:49:20.758Z,102373.50
2023-05-03T10:51:47.187Z,102356.84
2023-05-03T10:54:13.529Z,102364.41
2023-05-03T10:56:52.816Z,102363.66
2023-05-03T10:59:19.276Z,102360.13
2023-05-03T11:01:46.953Z,102359.00
2023-05-03T11:04:15.045Z,102362.09
2023-05-03T11:06:41.647Z,102354.66
2023-05-03T11:09:08.926Z,102355.69
2023-05-03T11:11:36.681Z,102344.03
2023-05-03T11:14:03.729Z,102356.31
2023-05-03T11:16:30.965Z,102349.34
2023-05-03T11:18:57.601Z,102358.56
2023-05-03T11:21:23.979Z,102354.66
2023-05-03T11:23:50.435Z,102359.19
2023-05-03T11:26:16.832Z,102354.66
2023-05-03T11:28:43.340Z,102347.81
2023-05-03T11:31:09.939Z,102344.47
2023-05-03T11:33:36.743Z,102338.09
2023-05-03T11:36:09.781Z,102343.72
2023-05-03T11:38:37.373Z,102332.50
2023-05-03T11:41:16.939Z,102335.53
2023-05-03T11:43:47.070Z,102335.28
2023-05-03T11:46:14.154Z,102343.22
2023-05-03T11:48:40.762Z,102323.16
2023-05-03T11:51:07.688Z,102332.31
2023-05-03T11:53:34.188Z,102323.44
2023-05-03T11:56:03.199Z,102318.09
2023-05-03T11:58:29.561Z,102325.53
2023-05-03T12:00:56.286Z,102333.81
2023-05-03T12:03:26.853Z,102335.59
2023-05-03T12:05:57.339Z,102329.66
2023-05-03T12:08:29.550Z,102334.03
2023-05-03T12:10:58.641Z,102329.38
2023-05-03T12:13:33.528Z,102323.25
2023-05-03T12:19:05.509Z,102320.19
2023-05-03T12:21:53.234Z,102321.84
2023-05-03T12:24:28.717Z,102317.59
2023-05-03T12:26:57.364Z,102318.81
2023-05-03T12:29:24.701Z,102322.94
2023-05-03T12:31:51.792Z,102308.53
2023-05-03T12:36:49.073Z,102312.16
2023-05-03T12:39:16.488Z,102317.94
2023-05-03T12:42:06.412Z,102318.53
2023-05-03T12:44:29.576Z,102322.94
2023-05-03T12:46:56.180Z,102310.19
2023-05-03T12:49:24.329Z,102320.19
2023-05-03T12:52:02.829Z,102315.78
2023-05-03T12:54:41.512Z,102317.94
2023-05-03T12:57:14.612Z,102318.69
2023-05-03T12:59:43.121Z,102309.44
2023-05-03T13:07:13.686Z,102294.44
2023-05-03T13:12:27.188Z,102288.03
2023-05-03T13:14:53.612Z,102288.16
2023-05-03T13:17:23.539Z,102279.53
2023-05-03T13:19:50.910Z,102283.16
2023-05-03T13:22:17.273Z,102270.13
2023-05-03T13:24:44.146Z,102270.41
2023-05-03T13:27:11.425Z,102263.13
2023-05-03T13:29:38.066Z,102266.00
2023-05-03T13:32:04.548Z,102256.03
2023-05-03T13:34:30.919Z,102251.63
2023-05-03T13:36:57.269Z,102259.03
2023-05-03T13:39:23.652Z,102253.41
2023-05-03T13:41:50.455Z,102253.28
2023-05-03T13:44:16.796Z,102251.13
2023-05-03T13:46:43.521Z,102253.88
2023-05-03T13:49:09.938Z,102246.88
2023-05-03T13:51:36.419Z,102236.88
2023-05-03T13:54:03.494Z,102241.91
2023-05-03T13:56:29.869Z,102239.00
2023-05-03T13:58:57.120Z,102234.00
2023-05-03T14:01:24.721Z,102236.88
2023-05-03T14:03:51.896Z,102235.63
2023-05-03T14:06:18.365Z,102230.63
2023-05-03T14:08:44.708Z,102232.88
2023-05-03T14:11:14.633Z,102230.63
2023-05-03T14:13:55.635Z,102229.25
2023-05-03T14:16:35.627Z,102219.22
2023-05-03T14:19:06.080Z,102226.38
2023-05-03T14:21:32.856Z,102222.13
2023-05-03T14:23:59.291Z,102232.28
2023-05-03T14:26:26.662Z,102222.88
2023-05-03T14:28:53.053Z,102220.00
2023-05-03T14:31:19.458Z,102219.38
2023-05-03T14:33:45.886Z,102212.09
2023-05-03T14:36:12.368Z,102215.88
2023-05-03T14:38:38.718Z,102213.59
2023-05-03T14:41:05.094Z,102213.47
2023-05-03T14:43:31.751Z,102213.59
2023-05-03T14:45:58.103Z,102213.59
2023-05-03T14:48:24.480Z,102204.97
2023-05-03T14:50:51.047Z,102210.84
2023-05-03T14:53:17.411Z,102203.59
2023-05-03T14:55:43.751Z,102205.09
2023-05-03T14:58:10.219Z,102212.25
2023-05-03T15:00:42.569Z,102201.47
2023-05-03T15:03:11.640Z,102212.38
2023-05-03T15:05:48.255Z,102207.38
2023-05-03T15:08:15.156Z,102216.63
2023-05-03T15:10:41.998Z,102214.63
2023-05-03T15:13:09.568Z,102210.25
2023-05-03T15:15:36.445Z,102211.13
2023-05-03T15:18:02.802Z,102209.59
2023-05-03T15:20:29.148Z,102209.59
2023-05-03T15:22:55.488Z,102202.34
2023-05-03T15:25:21.824Z,102209.00
2023-05-03T15:27:48.710Z,102198.84
2023-05-03T15:30:17.170Z,102196.59
2023-05-03T15:32:43.629Z,102201.09
2023-05-03T15:35:10.032Z,102196.13
2023-05-03T15:37:37.143Z,102196.84
2023-05-03T15:40:04.338Z,102193.97
2023-05-03T15:42:30.958Z,102186.81
2023-05-03T15:44:57.366Z,102195.34
2023-05-03T15:47:24.068Z,102193.22
2023-05-03T15:49:50.468Z,102187.56
2023-05-03T15:52:16.943Z,102189.56
2023-05-03T15:54:43.274Z,102189.56
2023-05-03T15:57:09.592Z,102187.09
2023-05-03T15:59:36.188Z,102193.00
2023-05-03T16:02:03.898Z,102185.97
2023-05-03T16:04:30.454Z,102177.19
2023-05-03T16:06:57.978Z,102190.09
2023-05-03T16:09:24.357Z,102184.34
2023-05-03T16:11:50.796Z,102181.34
2023-05-03T16:14:17.152Z,102178.72
2023-05-03T16:16:45.928Z,102172.06
2023-05-03T16:19:13.044Z,102165.41
2023-05-03T16:21:39.389Z,102166.44
2023-05-03T16:24:05.827Z,102171.13
2023-05-03T16:26:34.382Z,102166.16
2023-05-03T16:29:00.998Z,102163.66
2023-05-03T16:31:30.438Z,102171.53
2023-05-03T16:33:56.850Z,102178.81
2023-05-03T16:36:23.363Z,102172.28
2023-05-03T16:38:49.707Z,102173.81
2023-05-03T16:41:16.146Z,102175.31
2023-05-03T16:43:42.581Z,102172.56
2023-05-03T16:46:08.942Z,102173.81
2023-05-03T16:48:35.310Z,102170.28
2023-05-03T16:51:02.314Z,102169.53
2023-05-03T16:53:28.651Z,102173.94
2023-05-03T16:55:55.053Z,102165.31
2023-05-03T16:58:21.402Z,102163.03
2023-05-03T17:00:47.982Z,102170.94
2023-05-03T17:03:14.504Z,102165.31
2023-05-03T17:05:40.946Z,102171.06
2023-05-03T17:08:10.941Z,102166.03
2023-05-03T17:10:39.132Z,102166.03
2023-05-03T17:13:06.287Z,102159.53
2023-05-03T17:15:32.959Z,102169.53
2023-05-03T17:18:00.672Z,102169.53
2023-05-03T17:20:28.332Z,102164.53
2023-05-03T17:22:54.677Z,102163.78
2023-05-03T17:25:21.224Z,102168.06
2023-05-03T17:27:48.320Z,102168.06
2023-05-03T17:30:14.793Z,102165.03
2023-05-03T17:32:41.144Z,102170.81
2023-05-03T17:35:07.644Z,102166.53
2023-05-03T17:37:34.037Z,102171.53
2023-05-03T17:40:00.426Z,102167.16
2023-05-03T17:42:27.093Z,102165.19
2023-05-03T17:44:54.740Z,102157.50
2023-05-03T17:47:21.263Z,102163.84
2023-05-03T17:49:47.618Z,102163.28
2023-05-03T17:52:13.977Z,102166.91
2023-05-03T17:54:40.713Z,102168.63
2023-05-03T17:57:07.072Z,102168.63
2023-05-03T17:59:33.433Z,102164.13
2023-05-03T18:02:00.699Z,102172.69
2023-05-03T18:04:27.305Z,102165.84
2023-05-03T18:06:53.664Z,102165.16
2023-05-03T18:09:20.130Z,102161.38
2023-05-03T18:11:47.633Z,102171.06
2023-05-03T18:14:14.054Z,102168.72
2023-05-03T18:16:41.488Z,102169.81
2023-05-03T18:19:07.970Z,102173.19
2023-05-03T18:21:35.362Z,102167.47
2023-05-03T18:24:02.381Z,102176.50
2023-05-03T18:26:28.809Z,102175.25
2023-05-03T18:28:55.187Z,102175.25
2023-05-03T18:31:21.628Z,102168.09
2023-05-03T18:33:48.488Z,102172.38
2023-05-03T18:36:15.565Z,102168.88
2023-05-03T18:38:42.928Z,102167.50
2023-05-03T18:41:10.912Z,102171.91
2023-05-03T18:43:38.882Z,102174.00
2023-05-03T18:46:05.418Z,102181.28
2023-05-03T18:48:32.325Z,102175.53
2023-05-03T18:51:02.226Z,102171.25
2023-05-03T18:53:30.935Z,102177.66
2023-05-03T18:55:57.575Z,102178.41
2023-05-03T18:58:23.910Z,102181.53
2023-05-03T19:00:51.434Z,102178.53
2023-05-03T19:03:17.834Z,102181.28
2023-05-03T19:05:44.231Z,102188.53
2023-05-03T19:08:10.575Z,102190.66
2023-05-03T19:10:36.925Z,102184.16
2023-05-03T19:13:03.311Z,102196.38
2023-05-03T19:15:29.713Z,102196.16
2023-05-03T19:17:56.768Z,102190.66
2023-05-03T19:20:23.154Z,102192.81
2023-05-03T19:22:49.494Z,102192.81
2023-05-03T19:25:15.950Z,102197.81
2023-05-03T19:27:42.323Z,102195.53
2023-05-03T19:30:09.538Z,102202.78
2023-05-03T19:32:38.912Z,102197.03
2023-05-03T19:35:08.557Z,102192.06
2023-05-03T19:37:35.030Z,102186.16
2023-05-03T19:40:01.459Z,102193.41
2023-05-03T19:42:27.869Z,102187.03
2023-05-03T19:44:54.315Z,102184.28
2023-05-03T19:47:20.672Z,102188.53
2023-05-03T19:49:47.075Z,102185.53
2023-05-03T19:52:13.433Z,102189.78
2023-05-03T19:54:39.789Z,102186.91
2023-05-03T19:57:06.365Z,102189.03
2023-05-03T19:59:32.868Z,102189.03
2023-05-03T20:01:59.355Z,102187.50
2023-05-03T20:04:25.825Z,102187.50
2023-05-03T20:06:52.228Z,102182.50
2023-05-03T20:09:21.026Z,102179.75
2023-05-03T20:11:47.400Z,102184.91
2023-05-03T20:14:13.744Z,102179.75
2023-05-03T20:16:40.375Z,102182.63
2023-05-03T20:19:06.841Z,102178.25
2023-05-03T20:21:33.226Z,102184.03
2023-05-03T20:23:59.579Z,102189.78
2023-05-03T20:26:25.932Z,102189.78
2023-05-03T20:28:52.297Z,102191.78
2023-05-03T20:31:18.714Z,102193.88
2023-05-03T20:33:45.084Z,102185.25
2023-05-03T20:36:12.649Z,102191.00
2023-05-03T20:38:39.058Z,102185.25
2023-05-03T20:41:05.521Z,102197.53
2023-05-03T20:43:31.869Z,102191.78
2023-05-03T20:45:58.240Z,102188.13
2023-05-03T20:48:24.671Z,102196.75
2023-05-03T20:50:51.145Z,102197.53
2023-05-03T20:53:17.536Z,102194.66
2023-05-03T20:55:43.888Z,102200.41
2023-05-03T20:58:12.118Z,102198.16
2023-05-03T21:00:38.575Z,102189.50
2023-05-03T21:03:05.059Z,102195.28
2023-05-03T21:05:31.573Z,102188.78
2023-05-03T21:07:57.936Z,102193.00
2023-05-03T21:10:24.265Z,102194.53
2023-05-03T21:12:50.615Z,102190.13
2023-05-03T21:15:17.006Z,102196.66
2023-05-03T21:17:43.484Z,102198.00
2023-05-03T21:20:10.805Z,102192.25
2023-05-03T21:22:37.614Z,102193.66
2023-05-03T21:25:04.250Z,102185.00
2023-05-03T21:27:30.589Z,102188.63
2023-05-03T21:29:56.948Z,102180.59
2023-05-03T21:32:23.463Z,102182.75
2023-05-03T21:34:49.820Z,102188.50
2023-05-03T21:37:16.838Z,102187.75
2023-05-03T21:39:50.507Z,102188.50
2023-05-03T21:42:24.300Z,102183.34
2023-05-03T21:44:50.712Z,102186.22
2023-05-03T21:47:17.069Z,102180.47
2023-05-03T21:49:43.802Z,102186.22
2023-05-03T21:52:10.250Z,102182.59
2023-05-03T21:54:36.721Z,102178.97
2023-05-03T21:57:03.081Z,102177.47
2023-05-03T21:59:29.433Z,102175.97
2023-05-03T22:01:55.836Z,102177.47
2023-05-03T22:04:22.455Z,102176.09
2023-05-03T22:06:48.816Z,102168.19
2023-05-03T22:09:15.234Z,102168.94
2023-05-03T22:11:41.588Z,102179.72
2023-05-03T22:14:08.715Z,102171.69
2023-05-03T22:16:38.917Z,102176.72
2023-05-03T22:19:05.425Z,102180.97
2023-05-03T22:21:31.968Z,102175.97
2023-05-03T22:23:58.448Z,102166.56
2023-05-03T22:26:25.061Z,102164.31
2023-05-03T22:28:51.941Z,102167.19
2023-05-03T22:31:18.328Z,102172.19
2023-05-03T22:33:45.051Z,102169.94
2023-05-03T22:36:12.384Z,102165.69
2023-05-03T22:38:39.593Z,102169.94
2023-05-03T22:41:07.705Z,102168.44
2023-05-03T22:43:34.057Z,102171.31
2023-05-03T22:46:00.498Z,102174.19
2023-05-03T22:48:29.774Z,102173.44
2023-05-03T22:50:56.249Z,102178.44
2023-05-03T22:53:22.586Z,102167.56
2023-05-03T22:55:58.650Z,102166.78
2023-05-03T22:58:25.646Z,102175.41
2023-05-03T23:00:52.885Z,102168.91
2023-05-03T23:03:19.607Z,102174.66
2023-05-03T23:05:47.143Z,102164.53
2023-05-03T23:08:14.036Z,102163.78
2023-05-03T23:10:40.744Z,102166.66
2023-05-03T23:13:07.443Z,102162.41
2023-05-03T23:15:33.952Z,102168.16
2023-05-03T23:18:00.393Z,102161.66
2023-05-03T23:20:26.752Z,102165.16
2023-05-03T23:22:53.177Z,102160.91
2023-05-03T23:25:19.871Z,102165.16
2023-05-03T23:27:46.276Z,102163.66
2023-05-03T23:30:13.215Z,102164.41
2023-05-03T23:32:39.966Z,102156.38
2023-05-03T23:35:07.435Z,102162.63
2023-05-03T23:37:33.843Z,102150.34
2023-05-03T23:40:00.174Z,102151.72
2023-05-03T23:42:26.509Z,102154.63
2023-05-03T23:44:55.654Z,102152.34
2023-05-03T23:47:22.413Z,102158.88
2023-05-03T23:49:48.765Z,102154.47
2023-05-03T23:52:16.894Z,102153.88
2023-05-03T23:54:43.274Z,102158.09
2023-05-03T23:57:09.640Z,102151.59
2023-05-03T23:59:35.982Z,102162.38
